createdAt,value
2023-01-29T00:01:20.776Z,13.1
2023-01-29T00:03:17.914Z,13.1
2023-01-29T00:05:27.731Z,13.1
2023-01-29T00:07:28.661Z,13.1
2023-01-29T00:07:57.589Z,13.1
2023-01-29T00:08:45.573Z,13.1
2023-01-29T00:10:48.543Z,13.1
2023-01-29T00:12:45.440Z,13.1
2023-01-29T00:14:51.701Z,13.1
2023-01-29T00:16:47.119Z,13.1
2023-01-29T00:18:46.697Z,12.9
2023-01-29T00:20:49.713Z,12.9
2023-01-29T00:22:45.594Z,12.7
2023-01-29T00:24:51.743Z,12.7
2023-01-29T00:26:45.632Z,12.7
2023-01-29T00:28:46.355Z,12.6
2023-01-29T00:30:48.930Z,12.5
2023-01-29T00:32:20.959Z,12.4
2023-01-29T00:34:19.411Z,12.4
2023-01-29T00:36:19.455Z,12.5
2023-01-29T00:38:19.425Z,12.5
2023-01-29T00:40:20.603Z,12.3
2023-01-29T00:42:20.910Z,12.2
2023-01-29T00:44:21.098Z,12.1
2023-01-29T00:46:20.881Z,12.2
2023-01-29T00:48:19.407Z,12.1
2023-01-29T00:50:19.598Z,12.1
2023-01-29T00:52:19.517Z,12
2023-01-29T00:54:19.478Z,12
2023-01-29T00:56:20.630Z,12
2023-01-29T00:58:19.372Z,11.9
2023-01-29T01:00:19.502Z,11.9
2023-01-29T01:02:19.418Z,11.8
2023-01-29T01:04:19.524Z,11.8
2023-01-29T01:06:19.504Z,12
2023-01-29T01:08:20.654Z,11.8
2023-01-29T01:10:20.948Z,11.8
2023-01-29T01:12:20.505Z,11.8
2023-01-29T01:14:19.440Z,11.7
2023-01-29T01:16:19.492Z,11.7
2023-01-29T01:18:19.346Z,11.7
2023-01-29T01:20:19.601Z,11.7
2023-01-29T01:22:19.364Z,11.7
2023-01-29T01:23:09.035Z,11.7
2023-01-29T01:24:04.728Z,11.5
2023-01-29T01:25:02.592Z,11.6
2023-01-29T01:27:01.598Z,11.7
2023-01-29T01:29:40.783Z,11.6
2023-01-29T01:30:58.807Z,11.5
2023-01-29T01:33:04.611Z,11.5
2023-01-29T01:34:58.741Z,11.5
2023-01-29T01:36:58.864Z,11.5
2023-01-29T01:40:03.866Z,11.4
2023-01-29T01:41:56.559Z,11.3
2023-01-29T01:43:54.525Z,11.3
2023-01-29T01:45:55.280Z,11.3
2023-01-29T01:47:54.473Z,11.3
2023-01-29T01:49:54.467Z,11.2
2023-01-29T01:51:54.606Z,11.1
2023-01-29T01:53:54.514Z,11.1
2023-01-29T01:55:54.354Z,11.2
2023-01-29T01:57:54.386Z,11
2023-01-29T01:59:55.676Z,11.1
2023-01-29T02:01:55.860Z,11
2023-01-29T02:03:54.470Z,11
2023-01-29T02:05:54.410Z,11.1
2023-01-29T02:07:54.373Z,11
2023-01-29T02:09:54.329Z,11
2023-01-29T02:11:54.340Z,10.9
2023-01-29T02:13:55.613Z,10.9
2023-01-29T02:15:54.372Z,10.8
2023-01-29T02:17:54.381Z,10.8
2023-01-29T02:19:54.326Z,10.7
2023-01-29T02:21:54.456Z,10.7
2023-01-29T02:23:55.791Z,10.7
2023-01-29T02:25:54.425Z,10.8
2023-01-29T02:27:54.299Z,10.7
2023-01-29T02:29:54.371Z,10.6
2023-01-29T02:31:54.482Z,10.5
2023-01-29T02:33:55.560Z,10.5
2023-01-29T02:35:57.235Z,10.5
2023-01-29T02:37:54.290Z,10.4
2023-01-29T02:39:54.405Z,10.4
2023-01-29T02:41:54.345Z,10.5
2023-01-29T02:43:54.265Z,10.5
2023-01-29T02:45:54.409Z,10.6
2023-01-29T02:47:54.285Z,10.6
2023-01-29T02:49:54.273Z,10.6
2023-01-29T02:51:54.267Z,10.6
2023-01-29T02:53:54.515Z,10.6
2023-01-29T02:55:55.423Z,10.7
2023-01-29T02:57:54.306Z,10.7
2023-01-29T02:59:54.439Z,10.6
2023-01-29T03:01:54.289Z,10.7
2023-01-29T03:04:00.134Z,10.7
2023-01-29T03:05:55.509Z,10.8
2023-01-29T03:07:54.253Z,10.8
2023-01-29T03:09:54.357Z,10.8
2023-01-29T03:11:54.294Z,10.8
2023-01-29T03:13:54.445Z,10.8
2023-01-29T03:15:54.418Z,10.9
2023-01-29T03:17:54.378Z,10.9
2023-01-29T03:19:54.272Z,10.9
2023-01-29T03:21:54.217Z,11
2023-01-29T03:22:49.116Z,11
2023-01-29T03:23:55.722Z,11
2023-01-29T03:25:55.488Z,11.1
2023-01-29T03:27:54.289Z,11.1
2023-01-29T03:29:54.229Z,11.1
2023-01-29T03:31:58.309Z,11.1
2023-01-29T03:33:54.278Z,11.1
2023-01-29T03:35:54.370Z,11.2
2023-01-29T03:37:54.206Z,11.2
2023-01-29T03:39:54.298Z,11.2
2023-01-29T03:41:54.290Z,11.2
2023-01-29T03:43:54.287Z,11.2
2023-01-29T03:45:54.292Z,11.2
2023-01-29T03:47:04.515Z,11.2
2023-01-29T03:48:50.231Z,11.2
2023-01-29T03:50:50.237Z,11.2
2023-01-29T03:52:50.435Z,11.2
2023-01-29T03:54:50.233Z,11.2
2023-01-29T03:56:50.216Z,11.3
2023-01-29T03:58:51.415Z,11.4
2023-01-29T04:00:51.512Z,11.4
2023-01-29T04:02:50.281Z,11.4
2023-01-29T04:04:50.143Z,11.4
2023-01-29T04:06:50.179Z,11.3
2023-01-29T04:08:50.220Z,11.4
2023-01-29T04:10:50.162Z,11.3
2023-01-29T04:12:50.153Z,11.2
2023-01-29T04:14:50.157Z,11.2
2023-01-29T04:16:50.196Z,11.3
2023-01-29T04:18:50.216Z,11.3
2023-01-29T04:20:50.149Z,11.2
2023-01-29T04:22:50.143Z,11.1
2023-01-29T04:24:50.174Z,11.1
2023-01-29T04:26:50.277Z,11.2
2023-01-29T04:28:51.553Z,11.2
2023-01-29T04:30:50.382Z,11.2
2023-01-29T04:32:50.149Z,11.2
2023-01-29T04:34:50.157Z,11.2
2023-01-29T04:36:50.101Z,11.2
2023-01-29T04:38:50.122Z,11.2
2023-01-29T04:39:55.152Z,11.2
2023-01-29T04:40:50.168Z,11.2
2023-01-29T04:42:50.144Z,11.2
2023-01-29T04:44:50.186Z,11.1
2023-01-29T04:46:50.124Z,11.1
2023-01-29T04:48:50.110Z,11.1
2023-01-29T04:50:50.172Z,10.9
2023-01-29T04:52:50.182Z,10.9
2023-01-29T04:54:50.049Z,10.9
2023-01-29T04:56:52.223Z,11
2023-01-29T04:58:50.204Z,11
2023-01-29T05:00:50.081Z,11.1
2023-01-29T05:02:50.239Z,11.1
2023-01-29T05:04:50.068Z,11.1
2023-01-29T05:06:50.392Z,11.1
2023-01-29T05:08:50.308Z,11.1
2023-01-29T05:10:52.986Z,11
2023-01-29T05:12:50.229Z,11
2023-01-29T05:14:50.079Z,11.1
2023-01-29T05:16:50.198Z,11.2
2023-01-29T05:18:50.057Z,11.1
2023-01-29T05:20:50.086Z,11
2023-01-29T05:22:50.087Z,11
2023-01-29T05:24:50.164Z,11
2023-01-29T05:26:50.165Z,11
2023-01-29T05:28:50.096Z,10.9
2023-01-29T05:30:50.074Z,10.9
2023-01-29T05:32:50.215Z,10.9
2023-01-29T05:34:51.408Z,10.9
2023-01-29T05:36:51.346Z,11
2023-01-29T05:38:50.061Z,10.9
2023-01-29T05:40:50.068Z,10.9
2023-01-29T05:42:50.094Z,10.9
2023-01-29T05:44:50.228Z,10.8
2023-01-29T05:46:50.084Z,10.8
2023-01-29T05:48:50.002Z,10.8
2023-01-29T05:50:50.038Z,10.8
2023-01-29T05:52:50.034Z,10.8
2023-01-29T05:54:50.026Z,10.8
2023-01-29T05:56:50.050Z,10.8
2023-01-29T05:58:50.055Z,10.8
2023-01-29T06:00:50.031Z,10.8
2023-01-29T06:02:50.111Z,10.8
2023-01-29T06:04:49.965Z,10.7
2023-01-29T06:06:50.070Z,10.8
2023-01-29T06:08:50.137Z,10.7
2023-01-29T06:10:49.991Z,10.7
2023-01-29T06:12:50.151Z,10.6
2023-01-29T06:14:50.134Z,10.6
2023-01-29T06:16:54.560Z,10.7
2023-01-29T06:18:50.057Z,10.6
2023-01-29T06:20:50.061Z,10.6
2023-01-29T06:22:50.029Z,10.6
2023-01-29T06:24:50.076Z,10.5
2023-01-29T06:26:49.973Z,10.6
2023-01-29T06:28:50.042Z,10.5
2023-01-29T06:30:49.960Z,10.5
2023-01-29T06:32:50.019Z,10.4
2023-01-29T06:34:50.021Z,10.4
2023-01-29T06:36:50.118Z,10.4
2023-01-29T06:38:50.189Z,10.4
2023-01-29T06:40:50.082Z,10.4
2023-01-29T06:42:50.012Z,10.3
2023-01-29T06:44:51.061Z,10.3
2023-01-29T06:46:50.009Z,10.3
2023-01-29T06:48:49.993Z,10.3
2023-01-29T06:50:50.081Z,10.2
2023-01-29T06:52:50.031Z,10.2
2023-01-29T06:54:49.953Z,10.1
2023-01-29T06:56:50.025Z,10.2
2023-01-29T06:58:50.096Z,10.1
2023-01-29T07:00:49.922Z,10
2023-01-29T07:02:49.901Z,9.9
2023-01-29T07:04:49.938Z,9.9
2023-01-29T07:06:49.928Z,9.9
2023-01-29T07:08:49.945Z,9.9
2023-01-29T07:10:52.733Z,9.8
2023-01-29T07:12:51.305Z,9.8
2023-01-29T07:14:50.641Z,9.7
2023-01-29T07:16:49.899Z,9.8
2023-01-29T07:18:49.896Z,9.7
2023-01-29T07:20:50.063Z,9.6
2023-01-29T07:22:49.886Z,9.6
2023-01-29T07:24:49.895Z,9.5
2023-01-29T07:26:50.025Z,9.6
2023-01-29T07:28:49.908Z,9.5
2023-01-29T07:30:49.944Z,9.5
2023-01-29T07:32:49.891Z,9.5
2023-01-29T07:34:49.876Z,9.5
2023-01-29T07:36:49.871Z,9.5
2023-01-29T07:38:49.924Z,9.4
2023-01-29T07:40:49.895Z,9.4
2023-01-29T07:42:49.898Z,9.3
2023-01-29T07:44:49.959Z,9.3
2023-01-29T07:46:49.978Z,9.3
2023-01-29T07:48:49.907Z,9.2
2023-01-29T07:50:49.935Z,9.2
2023-01-29T07:52:49.877Z,9.1
2023-01-29T07:54:49.912Z,9.1
2023-01-29T07:56:49.848Z,9.1
2023-01-29T07:58:50.055Z,9.1
2023-01-29T08:00:49.884Z,9
2023-01-29T08:02:50.036Z,9
2023-01-29T08:04:49.818Z,8.9
2023-01-29T08:06:49.855Z,9
2023-01-29T08:08:49.889Z,8.9
2023-01-29T08:10:49.871Z,8.9
2023-01-29T08:12:50.228Z,8.8
2023-01-29T08:14:49.831Z,8.8
2023-01-29T08:16:49.924Z,8.8
2023-01-29T08:18:49.842Z,8.8
2023-01-29T08:20:52.614Z,8.8
2023-01-29T08:22:49.833Z,8.7
2023-01-29T08:24:53.933Z,8.7
2023-01-29T08:26:49.822Z,8.7
2023-01-29T08:28:50.837Z,8.6
2023-01-29T08:30:50.773Z,8.6
2023-01-29T08:32:49.914Z,8.6
2023-01-29T08:34:50.731Z,8.5
2023-01-29T08:36:49.958Z,8.6
2023-01-29T08:38:50.856Z,8.5
2023-01-29T08:40:49.856Z,8.5
2023-01-29T08:42:49.783Z,8.4
2023-01-29T08:44:50.932Z,8.4
2023-01-29T08:46:50.424Z,8.4
2023-01-29T08:48:50.639Z,8.4
2023-01-29T08:50:50.597Z,8.3
2023-01-29T08:52:50.491Z,8.3
2023-01-29T08:54:50.771Z,8.2
2023-01-29T08:56:50.957Z,8.2
2023-01-29T08:58:50.725Z,8.2
2023-01-29T09:00:50.874Z,8.1
2023-01-29T09:02:50.535Z,8.1
2023-01-29T09:04:50.905Z,8
2023-01-29T09:06:50.930Z,8.1
2023-01-29T09:08:50.828Z,8
2023-01-29T09:10:50.808Z,8
2023-01-29T09:12:50.888Z,8
2023-01-29T09:14:50.794Z,8
2023-01-29T09:16:50.799Z,8
2023-01-29T09:18:50.741Z,7.9
2023-01-29T09:20:50.747Z,7.9
2023-01-29T09:22:50.811Z,7.9
2023-01-29T09:24:50.811Z,7.8
2023-01-29T09:26:50.721Z,7.9
2023-01-29T09:28:50.744Z,7.8
2023-01-29T09:30:50.841Z,7.8
2023-01-29T09:32:54.741Z,7.8
2023-01-29T09:34:50.779Z,7.7
2023-01-29T09:36:50.767Z,7.8
2023-01-29T09:38:50.744Z,7.7
2023-01-29T09:40:50.766Z,7.7
2023-01-29T09:42:50.463Z,7.7
2023-01-29T09:44:50.692Z,7.7
2023-01-29T09:46:50.619Z,7.6
2023-01-29T09:48:50.384Z,7.6
2023-01-29T09:50:50.715Z,7.5
2023-01-29T09:52:50.137Z,7.5
2023-01-29T09:54:49.945Z,7.5
2023-01-29T09:56:49.739Z,7.5
2023-01-29T09:58:49.772Z,7.5
2023-01-29T10:00:49.721Z,7.4
2023-01-29T10:02:49.756Z,7.4
2023-01-29T10:04:49.834Z,7.3
2023-01-29T10:06:49.759Z,7.4
2023-01-29T10:08:49.682Z,7.4
2023-01-29T10:10:49.697Z,7.4
2023-01-29T10:12:49.693Z,7.4
2023-01-29T10:14:49.662Z,7.4
2023-01-29T10:16:49.741Z,7.4
2023-01-29T10:18:49.658Z,7.4
2023-01-29T10:20:49.682Z,7.3
2023-01-29T10:22:49.686Z,7.2
2023-01-29T10:24:49.655Z,7.3
2023-01-29T10:26:49.775Z,7.3
2023-01-29T10:28:53.942Z,7.3
2023-01-29T10:30:49.759Z,7.2
2023-01-29T10:32:49.653Z,7.2
2023-01-29T10:34:49.693Z,7.2
2023-01-29T10:36:49.650Z,7.2
2023-01-29T10:38:49.857Z,7.2
2023-01-29T10:40:49.629Z,7.1
2023-01-29T10:42:49.643Z,7
2023-01-29T10:44:49.657Z,7
2023-01-29T10:46:49.633Z,7.1
2023-01-29T10:48:49.632Z,7.1
2023-01-29T10:50:49.592Z,7.1
2023-01-29T10:52:49.658Z,7.1
2023-01-29T10:54:49.616Z,7.1
2023-01-29T10:56:49.657Z,7.1
2023-01-29T10:58:49.632Z,7.1
2023-01-29T11:00:49.766Z,7
2023-01-29T11:02:49.672Z,7
2023-01-29T11:04:49.605Z,7
2023-01-29T11:06:49.633Z,7
2023-01-29T11:08:49.644Z,6.9
2023-01-29T11:10:49.590Z,6.9
2023-01-29T11:12:49.603Z,6.9
2023-01-29T11:14:49.597Z,6.9
2023-01-29T11:16:49.642Z,6.8
2023-01-29T11:18:49.564Z,6.8
2023-01-29T11:20:49.569Z,6.8
2023-01-29T11:22:49.570Z,6.7
2023-01-29T11:24:49.563Z,6.7
2023-01-29T11:26:49.620Z,6.8
2023-01-29T11:28:49.569Z,6.9
2023-01-29T11:30:49.619Z,6.9
2023-01-29T11:32:49.598Z,6.9
2023-01-29T11:34:50.724Z,6.9
2023-01-29T11:36:49.590Z,6.9
2023-01-29T11:38:49.797Z,6.9
2023-01-29T11:40:49.620Z,6.9
2023-01-29T11:42:49.543Z,6.9
2023-01-29T11:44:49.606Z,6.8
2023-01-29T11:46:49.604Z,6.9
2023-01-29T11:48:49.837Z,6.9
2023-01-29T11:50:50.875Z,7
2023-01-29T11:52:49.640Z,6.9
2023-01-29T11:54:49.606Z,6.9
2023-01-29T11:56:50.756Z,7
2023-01-29T11:58:49.749Z,6.9
2023-01-29T11:59:30.867Z,6.9
2023-01-29T12:00:50.871Z,6.9
2023-01-29T12:02:52.022Z,6.9
2023-01-29T12:04:49.723Z,6.9
2023-01-29T12:06:49.733Z,6.9
2023-01-29T12:08:49.672Z,6.9
2023-01-29T12:10:49.757Z,6.9
2023-01-29T12:12:50.830Z,6.8
2023-01-29T12:14:49.694Z,6.7
2023-01-29T12:16:50.100Z,6.7
2023-01-29T12:18:53.337Z,6.7
2023-01-29T12:20:49.712Z,6.7
2023-01-29T12:22:49.597Z,6.8
2023-01-29T12:24:51.044Z,6.8
2023-01-29T12:26:49.589Z,6.9
2023-01-29T12:28:50.879Z,6.9
2023-01-29T12:30:49.873Z,7
2023-01-29T12:32:53.820Z,7
2023-01-29T12:34:49.774Z,7
2023-01-29T12:36:09.308Z,7
2023-01-29T12:36:51.048Z,7.1
2023-01-29T12:38:49.607Z,7.2
2023-01-29T12:40:49.533Z,7.2
2023-01-29T12:42:58.135Z,7.2
2023-01-29T12:44:49.554Z,7.2
2023-01-29T12:46:50.933Z,7.3
2023-01-29T12:48:50.918Z,7.3
2023-01-29T12:50:49.627Z,7.3
2023-01-29T12:52:49.499Z,7.4
2023-01-29T12:54:50.750Z,7.5
2023-01-29T12:56:51.022Z,7.6
2023-01-29T12:58:49.584Z,7.7
2023-01-29T13:00:49.689Z,7.6
2023-01-29T13:02:50.697Z,7.6
2023-01-29T13:04:49.551Z,7.7
2023-01-29T13:06:49.637Z,8
2023-01-29T13:08:49.649Z,8
2023-01-29T13:10:49.994Z,8.2
2023-01-29T13:12:49.516Z,8.3
2023-01-29T13:14:52.195Z,8.4
2023-01-29T13:16:49.674Z,8.6
2023-01-29T13:18:49.672Z,8.7
2023-01-29T13:20:49.563Z,8.9
2023-01-29T13:22:52.260Z,9
2023-01-29T13:24:58.655Z,9
2023-01-29T13:26:49.686Z,9.1
2023-01-29T13:28:49.555Z,9.2
2023-01-29T13:30:52.096Z,9.3
2023-01-29T13:32:49.544Z,9.3
2023-01-29T13:34:42.023Z,9.3
2023-01-29T13:35:06.470Z,9.4
2023-01-29T13:37:07.987Z,9.5
2023-01-29T13:39:06.452Z,9.6
2023-01-29T13:41:06.505Z,9.6
2023-01-29T13:43:06.451Z,9.5
2023-01-29T13:45:07.900Z,9.6
2023-01-29T13:47:06.575Z,9.6
2023-01-29T13:49:06.588Z,9.6
2023-01-29T13:51:07.617Z,9.6
2023-01-29T13:53:06.929Z,9.6
2023-01-29T13:55:06.604Z,9.7
2023-01-29T13:57:15.488Z,9.8
2023-01-29T13:59:09.567Z,9.7
2023-01-29T14:01:06.615Z,9.8
2023-01-29T14:03:07.626Z,9.8
2023-01-29T14:05:08.960Z,9.7
2023-01-29T14:07:06.508Z,9.9
2023-01-29T14:09:29.315Z,10
2023-01-29T14:11:06.447Z,10
2023-01-29T14:13:06.506Z,10.1
2023-01-29T14:15:10.792Z,10.2
2023-01-29T14:17:10.654Z,10.3
2023-01-29T14:19:06.489Z,10.3
2023-01-29T14:21:07.898Z,10.5
2023-01-29T14:23:06.668Z,10.6
2023-01-29T14:25:06.437Z,10.7
2023-01-29T14:27:07.605Z,10.9
2023-01-29T14:29:08.883Z,10.9
2023-01-29T14:31:06.663Z,11
2023-01-29T14:33:09.095Z,11
2023-01-29T14:35:06.331Z,11.2
2023-01-29T14:37:07.835Z,11.5
2023-01-29T14:39:06.391Z,11.4
2023-01-29T14:41:06.526Z,11.4
2023-01-29T14:42:58.000Z,11.5
2023-01-29T14:44:35.408Z,11.6
2023-01-29T14:46:35.217Z,11.9
2023-01-29T14:48:30.337Z,11.9
2023-01-29T14:49:02.835Z,12.1
2023-01-29T14:51:00.363Z,12.3
2023-01-29T14:53:03.784Z,12.2
2023-01-29T14:55:10.718Z,12.2
2023-01-29T14:55:26.264Z,12.4
2023-01-29T14:57:26.506Z,12.7
2023-01-29T14:59:27.585Z,13
2023-01-29T15:01:44.250Z,12.9
2023-01-29T15:03:27.766Z,13.1
2023-01-29T15:05:31.950Z,13.2
2023-01-29T15:07:26.349Z,13.4
2023-01-29T15:09:35.858Z,13.5
2023-01-29T15:11:30.640Z,13.4
2023-01-29T15:13:33.951Z,13.6
2023-01-29T15:15:27.609Z,13.8
2023-01-29T15:17:26.410Z,13.9
2023-01-29T15:19:50.913Z,14
2023-01-29T15:21:30.545Z,14.2
2023-01-29T15:23:27.391Z,14.3
2023-01-29T15:25:26.381Z,14.4
2023-01-29T15:27:26.564Z,14.6
2023-01-29T15:29:27.407Z,14.6
2023-01-29T15:31:26.491Z,14.8
2023-01-29T15:33:26.381Z,15
2023-01-29T15:35:00.504Z,15
2023-01-29T15:36:07.977Z,15.2
2023-01-29T15:38:10.913Z,15.3
2023-01-29T15:40:10.893Z,15.2
2023-01-29T15:42:06.193Z,15.3
2023-01-29T15:44:05.137Z,15.3
2023-01-29T15:46:09.239Z,15.5
2023-01-29T15:48:04.944Z,15.7
2023-01-29T15:50:06.176Z,15.8
2023-01-29T15:52:05.041Z,15.8
2023-01-29T15:54:06.338Z,15.9
2023-01-29T15:56:06.194Z,16.1
2023-01-29T15:58:05.335Z,16.3
2023-01-29T16:00:05.000Z,16.2
2023-01-29T16:02:06.006Z,16.4
2023-01-29T16:04:05.001Z,16.4
2023-01-29T16:06:06.139Z,16.4
2023-01-29T16:08:07.305Z,16.6
2023-01-29T16:10:06.618Z,16.5
2023-01-29T16:12:07.509Z,16.5
2023-01-29T16:14:04.968Z,16.4
2023-01-29T16:16:05.018Z,16.4
2023-01-29T16:18:04.814Z,16.5
2023-01-29T16:20:04.898Z,16.5
2023-01-29T16:22:04.969Z,16.7
2023-01-29T16:24:04.874Z,16.9
2023-01-29T16:26:05.907Z,16.9
2023-01-29T16:28:04.994Z,17.1
2023-01-29T16:30:05.074Z,17.4
2023-01-29T16:32:06.087Z,17.4
2023-01-29T16:34:06.074Z,17.6
2023-01-29T16:36:04.819Z,17.5
2023-01-29T16:37:22.278Z,17.5
2023-01-29T16:38:10.397Z,17.6
2023-01-29T16:40:13.357Z,17.7
2023-01-29T16:42:04.956Z,18
2023-01-29T16:44:05.982Z,18
2023-01-29T16:46:04.852Z,17.9
2023-01-29T16:48:07.737Z,18.2
2023-01-29T16:50:04.913Z,18.3
2023-01-29T16:52:06.014Z,18.4
2023-01-29T16:54:04.981Z,18.6
2023-01-29T16:55:21.672Z,18.6
2023-01-29T16:56:06.230Z,18.5
2023-01-29T16:58:05.839Z,18.4
2023-01-29T17:00:04.768Z,18.5
2023-01-29T17:02:06.269Z,18.5
2023-01-29T17:02:54.305Z,18.5
2023-01-29T17:04:06.231Z,18.4
2023-01-29T17:06:12.343Z,18.5
2023-01-29T17:08:04.824Z,18.6
2023-01-29T17:10:06.420Z,18.6
2023-01-29T17:12:06.291Z,18.6
2023-01-29T17:14:04.867Z,18.6
2023-01-29T17:16:04.973Z,18.8
2023-01-29T17:17:29.814Z,18.8
2023-01-29T17:18:04.819Z,18.7
2023-01-29T17:20:06.164Z,18.5
2023-01-29T17:22:05.043Z,18.9
2023-01-29T17:24:06.384Z,19.1
2023-01-29T17:26:10.664Z,19.1
2023-01-29T17:28:04.732Z,19.1
2023-01-29T17:30:04.830Z,18.9
2023-01-29T17:32:06.077Z,18.9
2023-01-29T17:34:06.101Z,18.8
2023-01-29T17:36:04.849Z,18.8
2023-01-29T17:38:06.095Z,18.9
2023-01-29T17:40:05.431Z,19
2023-01-29T17:41:52.791Z,18.9
2023-01-29T17:42:50.816Z,19.2
2023-01-29T17:44:51.861Z,19.5
2023-01-29T17:46:51.837Z,19.7
2023-01-29T17:47:36.556Z,19.7
2023-01-29T17:48:50.651Z,19.8
2023-01-29T17:50:50.696Z,19.7
2023-01-29T17:52:50.810Z,19.8
2023-01-29T17:54:51.776Z,19.5
2023-01-29T17:56:50.798Z,19.3
2023-01-29T17:58:50.647Z,19.3
2023-01-29T18:00:50.748Z,19.4
2023-01-29T18:02:53.073Z,19.6
2023-01-29T18:04:52.037Z,19.7
2023-01-29T18:06:50.713Z,19.6
2023-01-29T18:08:50.711Z,19.7
2023-01-29T18:09:57.055Z,19.7
2023-01-29T18:10:52.042Z,19.6
2023-01-29T18:12:51.275Z,19.6
2023-01-29T18:14:59.552Z,19.7
2023-01-29T18:16:52.556Z,19.7
2023-01-29T18:18:50.660Z,19.8
2023-01-29T18:21:20.670Z,19.6
2023-01-29T18:22:50.649Z,19.8
2023-01-29T18:24:55.009Z,19.8
2023-01-29T18:26:50.569Z,19.7
2023-01-29T18:28:50.745Z,19.6
2023-01-29T18:30:50.633Z,19.3
2023-01-29T18:32:50.580Z,19.4
2023-01-29T18:34:50.630Z,19.3
2023-01-29T18:36:50.722Z,19.3
2023-01-29T18:38:50.809Z,19.3
2023-01-29T18:40:52.988Z,19.3
2023-01-29T18:43:00.981Z,19.5
2023-01-29T18:44:53.070Z,19.5
2023-01-29T18:46:56.423Z,19.7
2023-01-29T18:48:51.885Z,19.6
2023-01-29T18:50:52.151Z,19.6
2023-01-29T18:52:53.153Z,19.6
2023-01-29T18:54:50.690Z,19.8
2023-01-29T18:57:08.284Z,20
2023-01-29T18:58:52.196Z,20
2023-01-29T19:00:50.647Z,20
2023-01-29T19:02:50.826Z,20.1
2023-01-29T19:04:51.878Z,20.2
2023-01-29T19:06:50.567Z,20.2
2023-01-29T19:07:29.185Z,20.3
2023-01-29T19:08:04.139Z,20.3
2023-01-29T19:08:31.886Z,20.2
2023-01-29T19:10:31.965Z,20.1
2023-01-29T19:12:31.984Z,20.2
2023-01-29T19:14:33.224Z,19.7
2023-01-29T19:16:33.334Z,20.3
2023-01-29T19:18:53.197Z,20.2
2023-01-29T19:20:34.536Z,20.2
2023-01-29T19:22:31.839Z,20.2
2023-01-29T19:24:31.845Z,20.3
2023-01-29T19:26:31.941Z,20.1
2023-01-29T19:28:42.759Z,19.9
2023-01-29T19:29:09.486Z,19.9
2023-01-29T19:30:06.942Z,19.7
2023-01-29T19:32:06.524Z,19.8
2023-01-29T19:34:16.806Z,19.8
2023-01-29T19:36:38.853Z,20.1
2023-01-29T19:38:02.233Z,20
2023-01-29T19:40:06.411Z,20
2023-01-29T19:42:02.162Z,19.8
2023-01-29T19:43:22.443Z,19.8
2023-01-29T19:44:02.379Z,20
2023-01-29T19:46:02.256Z,19.8
2023-01-29T19:48:04.688Z,19.8
2023-01-29T19:50:02.582Z,19.8
2023-01-29T19:52:02.181Z,19.7
2023-01-29T19:54:02.299Z,19.6
2023-01-29T19:56:02.165Z,19.5
2023-01-29T19:58:03.448Z,19.7
2023-01-29T20:00:14.101Z,19.4
2023-01-29T20:02:03.202Z,19.5
2023-01-29T20:04:02.209Z,19.6
2023-01-29T20:06:02.287Z,19.7
2023-01-29T20:08:03.235Z,19.7
2023-01-29T20:10:02.198Z,19.6
2023-01-29T20:12:03.513Z,19.6
2023-01-29T20:14:02.184Z,19.3
2023-01-29T20:16:03.459Z,19.1
2023-01-29T20:18:04.707Z,19.2
2023-01-29T20:20:12.575Z,19.2
2023-01-29T20:21:28.083Z,19.2
2023-01-29T20:22:02.268Z,19.1
2023-01-29T20:24:02.127Z,19
2023-01-29T20:26:03.280Z,19
2023-01-29T20:28:02.191Z,19.2
2023-01-29T20:30:02.323Z,19.1
2023-01-29T20:32:49.966Z,18.9
2023-01-29T20:34:49.398Z,18.7
2023-01-29T20:36:21.417Z,18.6
2023-01-29T20:38:22.226Z,18.6
2023-01-29T20:40:22.364Z,18.5
2023-01-29T20:42:31.674Z,18.5
2023-01-29T20:44:25.619Z,18.6
2023-01-29T20:46:22.475Z,18.8
2023-01-29T20:48:22.984Z,18.7
2023-01-29T20:50:33.076Z,18.6
2023-01-29T20:52:25.787Z,18.5
2023-01-29T20:54:21.301Z,18.7
2023-01-29T20:56:23.149Z,18.7
2023-01-29T20:58:21.203Z,18.7
2023-01-29T21:00:21.847Z,18.6
2023-01-29T21:02:24.900Z,18.6
2023-01-29T21:04:23.071Z,18.5
2023-01-29T21:05:54.179Z,18.5
2023-01-29T21:07:04.592Z,18.5
2023-01-29T21:09:00.215Z,18.6
2023-01-29T21:11:00.111Z,18.5
2023-01-29T21:13:00.233Z,18.2
2023-01-29T21:15:00.163Z,18.3
2023-01-29T21:17:00.389Z,18.2
2023-01-29T21:19:00.419Z,18.2
2023-01-29T21:21:00.358Z,18.1
2023-01-29T21:23:00.154Z,18
2023-01-29T21:25:01.180Z,18
2023-01-29T21:27:00.105Z,18
2023-01-29T21:29:00.289Z,18
2023-01-29T21:31:04.633Z,17.9
2023-01-29T21:33:00.199Z,17.8
2023-01-29T21:34:13.321Z,17.8
2023-01-29T21:35:07.093Z,17.7
2023-01-29T21:35:31.382Z,17.7
2023-01-29T21:37:06.324Z,17.7
2023-01-29T21:39:55.409Z,17.7
2023-01-29T21:41:06.491Z,17.6
2023-01-29T21:43:11.352Z,17.5
2023-01-29T21:45:06.426Z,17.5
2023-01-29T21:47:06.270Z,17.4
2023-01-29T21:49:07.644Z,17.5
2023-01-29T21:51:06.251Z,17.6
2023-01-29T21:53:06.419Z,17.5
2023-01-29T21:55:06.391Z,17.4
2023-01-29T21:57:07.593Z,17.4
2023-01-29T21:59:09.979Z,17.4
2023-01-29T22:01:11.585Z,17.3
2023-01-29T22:03:06.264Z,17.3
2023-01-29T22:05:17.947Z,17.2
2023-01-29T22:07:06.253Z,17.2
2023-01-29T22:09:06.856Z,17.2
2023-01-29T22:11:07.232Z,17.2
2023-01-29T22:13:06.198Z,17.1
2023-01-29T22:15:06.266Z,17
2023-01-29T22:15:31.512Z,17
2023-01-29T22:17:06.275Z,16.9
2023-01-29T22:19:07.638Z,16.9
2023-01-29T22:21:06.267Z,16.8
2023-01-29T22:23:11.526Z,16.8
2023-01-29T22:25:06.308Z,16.8
2023-01-29T22:27:06.902Z,16.8
2023-01-29T22:29:07.870Z,16.9
2023-01-29T22:31:13.791Z,16.9
2023-01-29T22:33:06.863Z,16.9
2023-01-29T22:35:07.148Z,16.7
2023-01-29T22:37:06.254Z,16.7
2023-01-29T22:39:06.277Z,16.7
2023-01-29T22:41:31.422Z,16.6
2023-01-29T22:43:10.026Z,16.7
2023-01-29T22:45:07.612Z,16.7
2023-01-29T22:47:06.192Z,16.7
2023-01-29T22:49:07.282Z,16.7
2023-01-29T22:51:07.052Z,16.5
2023-01-29T22:53:28.271Z,16.6
2023-01-29T22:55:12.203Z,16.5
2023-01-29T22:57:06.222Z,16.5
2023-01-29T22:59:06.190Z,16.6
2023-01-29T23:01:07.701Z,16.7
2023-01-29T23:03:06.280Z,16.6
2023-01-29T23:05:06.161Z,16.7
2023-01-29T23:07:06.233Z,16.6
2023-01-29T23:09:06.234Z,16.6
2023-01-29T23:11:10.057Z,16.5
2023-01-29T23:13:06.188Z,16.6
2023-01-29T23:15:07.686Z,16.5
2023-01-29T23:17:06.302Z,16.4
2023-01-29T23:19:06.192Z,16.5
2023-01-29T23:21:07.242Z,16.5
2023-01-29T23:23:07.762Z,16.5
2023-01-29T23:25:06.093Z,16.6
2023-01-29T23:27:06.117Z,16.5
2023-01-29T23:29:07.348Z,16.6
2023-01-29T23:31:08.217Z,16.6
2023-01-29T23:33:07.599Z,16.4
2023-01-29T23:35:07.452Z,16.3
2023-01-29T23:37:09.624Z,16.5
2023-01-29T23:39:07.145Z,16.5
2023-01-29T23:41:06.124Z,16.5
2023-01-29T23:43:06.138Z,16.5
2023-01-29T23:45:06.059Z,16.5
2023-01-29T23:47:06.120Z,16.5
2023-01-29T23:49:08.441Z,16.5
2023-01-29T23:51:10.366Z,16.5
2023-01-29T23:53:07.255Z,16.6
2023-01-29T23:55:22.438Z,16.5
2023-01-29T23:57:07.376Z,16.5
2023-01-29T23:59:08.339Z,16.5
